sensor_id;sensor_type;location;lat;lon;timestamp;P1;durP1;ratioP1;P2;durP2;ratioP2
6356;SDS011;3211;53.452;-2.264;2023-07-08T00:00:16;11.83;;;4.90;;
6356;SDS011;3211;53.452;-2.264;2023-07-08T00:02:58;7.80;;;4.63;;
6356;SDS011;3211;53.452;-2.264;2023-07-08T00:05:40;5.90;;;5.30;;
6356;SDS011;3211;53.452;-2.264;2023-07-08T00:08:22;6.53;;;4.40;;
6356;SDS011;3211;53.452;-2.264;2023-07-08T00:11:07;6.00;;;5.13;;
6356;SDS011;3211;53.452;-2.264;2023-07-08T00:13:51;7.10;;;4.73;;
6356;SDS011;3211;53.452;-2.264;2023-07-08T00:16:34;9.17;;;5.00;;
6356;SDS011;3211;53.452;-2.264;2023-07-08T00:19:16;6.83;;;4.47;;
6356;SDS011;3211;53.452;-2.264;2023-07-08T00:21:59;4.73;;;4.23;;
6356;SDS011;3211;53.452;-2.264;2023-07-08T00:24:41;9.20;;;4.37;;
6356;SDS011;3211;53.452;-2.264;2023-07-08T00:27:23;4.97;;;4.27;;
6356;SDS011;3211;53.452;-2.264;2023-07-08T00:30:11;7.70;;;4.37;;
6356;SDS011;3211;53.452;-2.264;2023-07-08T00:33:03;5.67;;;4.30;;
6356;SDS011;3211;53.452;-2.264;2023-07-08T00:35:46;5.50;;;4.67;;
6356;SDS011;3211;53.452;-2.264;2023-07-08T00:38:28;6.90;;;4.37;;
6356;SDS011;3211;53.452;-2.264;2023-07-08T00:41:11;6.47;;;4.70;;
6356;SDS011;3211;53.452;-2.264;2023-07-08T00:43:56;7.10;;;5.93;;
6356;SDS011;3211;53.452;-2.264;2023-07-08T00:46:42;5.70;;;4.30;;
6356;SDS011;3211;53.452;-2.264;2023-07-08T00:49:35;10.80;;;4.90;;
6356;SDS011;3211;53.452;-2.264;2023-07-08T00:52:21;5.27;;;4.23;;
6356;SDS011;3211;53.452;-2.264;2023-07-08T00:55:06;7.23;;;4.50;;
6356;SDS011;3211;53.452;-2.264;2023-07-08T00:57:50;6.67;;;4.50;;
6356;SDS011;3211;53.452;-2.264;2023-07-08T01:00:32;5.43;;;4.40;;
6356;SDS011;3211;53.452;-2.264;2023-07-08T01:03:14;6.57;;;4.17;;
6356;SDS011;3211;53.452;-2.264;2023-07-08T01:05:59;8.03;;;6.23;;
6356;SDS011;3211;53.452;-2.264;2023-07-08T01:08:41;5.73;;;5.10;;
6356;SDS011;3211;53.452;-2.264;2023-07-08T01:11:23;7.03;;;5.53;;
6356;SDS011;3211;53.452;-2.264;2023-07-08T01:14:05;7.33;;;4.50;;
6356;SDS011;3211;53.452;-2.264;2023-07-08T01:16:50;6.50;;;4.60;;
6356;SDS011;3211;53.452;-2.264;2023-07-08T01:19:32;6.70;;;4.80;;
6356;SDS011;3211;53.452;-2.264;2023-07-08T01:22:16;5.20;;;4.50;;
6356;SDS011;3211;53.452;-2.264;2023-07-08T01:24:58;7.67;;;4.30;;
6356;SDS011;3211;53.452;-2.264;2023-07-08T01:27:44;9.23;;;4.60;;
6356;SDS011;3211;53.452;-2.264;2023-07-08T01:30:29;6.47;;;4.03;;
6356;SDS011;3211;53.452;-2.264;2023-07-08T01:33:12;6.80;;;4.30;;
6356;SDS011;3211;53.452;-2.264;2023-07-08T01:35:58;12.67;;;4.60;;
6356;SDS011;3211;53.452;-2.264;2023-07-08T01:38:42;9.50;;;4.87;;
6356;SDS011;3211;53.452;-2.264;2023-07-08T01:41:25;6.47;;;4.20;;
6356;SDS011;3211;53.452;-2.264;2023-07-08T01:44:19;5.40;;;3.90;;
6356;SDS011;3211;53.452;-2.264;2023-07-08T01:47:07;5.77;;;4.27;;
6356;SDS011;3211;53.452;-2.264;2023-07-08T01:49:52;8.70;;;4.63;;
6356;SDS011;3211;53.452;-2.264;2023-07-08T01:52:34;13.30;;;4.80;;
6356;SDS011;3211;53.452;-2.264;2023-07-08T01:55:21;4.60;;;4.00;;
6356;SDS011;3211;53.452;-2.264;2023-07-08T01:58:04;7.83;;;4.73;;
6356;SDS011;3211;53.452;-2.264;2023-07-08T02:00:46;5.27;;;4.53;;
6356;SDS011;3211;53.452;-2.264;2023-07-08T02:03:28;5.87;;;3.87;;
6356;SDS011;3211;53.452;-2.264;2023-07-08T02:06:10;14.40;;;4.77;;
6356;SDS011;3211;53.452;-2.264;2023-07-08T02:08:52;10.77;;;4.83;;
6356;SDS011;3211;53.452;-2.264;2023-07-08T02:11:36;5.73;;;4.10;;
6356;SDS011;3211;53.452;-2.264;2023-07-08T02:14:18;5.00;;;3.60;;
6356;SDS011;3211;53.452;-2.264;2023-07-08T02:17:00;6.50;;;4.40;;
6356;SDS011;3211;53.452;-2.264;2023-07-08T02:19:45;5.63;;;4.40;;
6356;SDS011;3211;53.452;-2.264;2023-07-08T02:22:27;7.50;;;4.13;;
6356;SDS011;3211;53.452;-2.264;2023-07-08T02:25:09;5.10;;;4.40;;
6356;SDS011;3211;53.452;-2.264;2023-07-08T02:27:53;6.10;;;4.60;;
6356;SDS011;3211;53.452;-2.264;2023-07-08T02:30:37;5.77;;;3.80;;
6356;SDS011;3211;53.452;-2.264;2023-07-08T02:33:21;6.00;;;3.80;;
6356;SDS011;3211;53.452;-2.264;2023-07-08T02:36:12;5.23;;;4.03;;
6356;SDS011;3211;53.452;-2.264;2023-07-08T02:38:54;6.20;;;4.13;;
6356;SDS011;3211;53.452;-2.264;2023-07-08T02:41:36;8.20;;;4.50;;
6356;SDS011;3211;53.452;-2.264;2023-07-08T02:44:19;6.13;;;4.00;;
6356;SDS011;3211;53.452;-2.264;2023-07-08T02:47:01;5.57;;;4.17;;
6356;SDS011;3211;53.452;-2.264;2023-07-08T02:49:44;5.53;;;4.13;;
6356;SDS011;3211;53.452;-2.264;2023-07-08T02:52:26;7.07;;;4.03;;
6356;SDS011;3211;53.452;-2.264;2023-07-08T02:55:08;4.90;;;4.00;;
6356;SDS011;3211;53.452;-2.264;2023-07-08T02:57:50;5.13;;;3.60;;
6356;SDS011;3211;53.452;-2.264;2023-07-08T03:00:33;6.57;;;5.00;;
6356;SDS011;3211;53.452;-2.264;2023-07-08T03:03:17;6.47;;;4.30;;
6356;SDS011;3211;53.452;-2.264;2023-07-08T03:06:00;6.40;;;4.60;;
6356;SDS011;3211;53.452;-2.264;2023-07-08T03:08:43;4.63;;;4.17;;
6356;SDS011;3211;53.452;-2.264;2023-07-08T03:11:25;6.00;;;4.30;;
6356;SDS011;3211;53.452;-2.264;2023-07-08T03:14:07;5.00;;;4.03;;
6356;SDS011;3211;53.452;-2.264;2023-07-08T03:16:50;4.53;;;4.13;;
6356;SDS011;3211;53.452;-2.264;2023-07-08T03:19:32;4.63;;;4.10;;
6356;SDS011;3211;53.452;-2.264;2023-07-08T03:22:15;7.80;;;4.23;;
6356;SDS011;3211;53.452;-2.264;2023-07-08T03:24:56;7.00;;;4.60;;
6356;SDS011;3211;53.452;-2.264;2023-07-08T03:27:38;5.73;;;4.27;;
6356;SDS011;3211;53.452;-2.264;2023-07-08T03:30:23;6.87;;;4.03;;
6356;SDS011;3211;53.452;-2.264;2023-07-08T03:33:06;6.97;;;4.47;;
6356;SDS011;3211;53.452;-2.264;2023-07-08T03:35:48;5.83;;;3.87;;
6356;SDS011;3211;53.452;-2.264;2023-07-08T03:38:31;6.97;;;3.50;;
6356;SDS011;3211;53.452;-2.264;2023-07-08T03:41:12;7.00;;;4.50;;
6356;SDS011;3211;53.452;-2.264;2023-07-08T03:43:54;8.57;;;4.60;;
6356;SDS011;3211;53.452;-2.264;2023-07-08T03:46:36;8.00;;;4.47;;
6356;SDS011;3211;53.452;-2.264;2023-07-08T03:49:21;10.83;;;4.37;;
6356;SDS011;3211;53.452;-2.264;2023-07-08T03:52:04;5.00;;;4.00;;
6356;SDS011;3211;53.452;-2.264;2023-07-08T03:54:49;9.27;;;4.27;;
6356;SDS011;3211;53.452;-2.264;2023-07-08T03:57:31;8.33;;;3.90;;
6356;SDS011;3211;53.452;-2.264;2023-07-08T04:00:13;6.07;;;4.10;;
6356;SDS011;3211;53.452;-2.264;2023-07-08T04:02:56;6.73;;;4.00;;
6356;SDS011;3211;53.452;-2.264;2023-07-08T04:05:39;4.80;;;3.40;;
6356;SDS011;3211;53.452;-2.264;2023-07-08T04:08:21;4.47;;;3.90;;
6356;SDS011;3211;53.452;-2.264;2023-07-08T04:11:03;10.10;;;3.97;;
6356;SDS011;3211;53.452;-2.264;2023-07-08T04:13:45;8.80;;;3.90;;
6356;SDS011;3211;53.452;-2.264;2023-07-08T04:16:28;6.80;;;5.13;;
6356;SDS011;3211;53.452;-2.264;2023-07-08T04:19:13;6.57;;;3.70;;
6356;SDS011;3211;53.452;-2.264;2023-07-08T04:21:56;5.63;;;4.13;;
6356;SDS011;3211;53.452;-2.264;2023-07-08T04:24:38;7.03;;;4.43;;
6356;SDS011;3211;53.452;-2.264;2023-07-08T04:27:20;7.27;;;4.47;;
6356;SDS011;3211;53.452;-2.264;2023-07-08T04:30:02;6.20;;;4.30;;
6356;SDS011;3211;53.452;-2.264;2023-07-08T04:32:45;5.77;;;4.83;;
6356;SDS011;3211;53.452;-2.264;2023-07-08T04:35:27;6.33;;;4.30;;
6356;SDS011;3211;53.452;-2.264;2023-07-08T04:38:11;6.77;;;4.63;;
6356;SDS011;3211;53.452;-2.264;2023-07-08T04:40:58;8.00;;;4.67;;
6356;SDS011;3211;53.452;-2.264;2023-07-08T04:43:40;7.57;;;3.70;;
6356;SDS011;3211;53.452;-2.264;2023-07-08T04:46:22;5.57;;;4.53;;
6356;SDS011;3211;53.452;-2.264;2023-07-08T04:49:10;6.07;;;4.60;;
6356;SDS011;3211;53.452;-2.264;2023-07-08T04:51:53;7.50;;;4.50;;
6356;SDS011;3211;53.452;-2.264;2023-07-08T04:54:36;6.30;;;4.23;;
6356;SDS011;3211;53.452;-2.264;2023-07-08T04:57:18;6.40;;;4.20;;
6356;SDS011;3211;53.452;-2.264;2023-07-08T05:00:01;5.80;;;4.20;;
6356;SDS011;3211;53.452;-2.264;2023-07-08T05:02:47;7.53;;;4.87;;
6356;SDS011;3211;53.452;-2.264;2023-07-08T05:05:29;7.30;;;4.97;;
6356;SDS011;3211;53.452;-2.264;2023-07-08T05:08:11;6.93;;;4.60;;
6356;SDS011;3211;53.452;-2.264;2023-07-08T05:10:55;8.20;;;5.73;;
6356;SDS011;3211;53.452;-2.264;2023-07-08T05:13:37;6.20;;;4.50;;
6356;SDS011;3211;53.452;-2.264;2023-07-08T05:16:19;10.87;;;4.40;;
6356;SDS011;3211;53.452;-2.264;2023-07-08T05:19:02;7.10;;;4.50;;
6356;SDS011;3211;53.452;-2.264;2023-07-08T05:21:44;7.63;;;4.77;;
6356;SDS011;3211;53.452;-2.264;2023-07-08T05:24:28;7.13;;;4.67;;
6356;SDS011;3211;53.452;-2.264;2023-07-08T05:27:11;10.20;;;5.10;;
6356;SDS011;3211;53.452;-2.264;2023-07-08T05:29:53;7.40;;;4.57;;
6356;SDS011;3211;53.452;-2.264;2023-07-08T05:32:35;6.87;;;4.50;;
6356;SDS011;3211;53.452;-2.264;2023-07-08T05:35:17;7.20;;;5.17;;
6356;SDS011;3211;53.452;-2.264;2023-07-08T05:37:59;7.00;;;4.37;;
6356;SDS011;3211;53.452;-2.264;2023-07-08T05:40:41;8.17;;;4.83;;
6356;SDS011;3211;53.452;-2.264;2023-07-08T05:43:25;6.97;;;4.80;;
6356;SDS011;3211;53.452;-2.264;2023-07-08T05:46:07;5.57;;;4.57;;
6356;SDS011;3211;53.452;-2.264;2023-07-08T05:48:49;6.70;;;4.90;;
6356;SDS011;3211;53.452;-2.264;2023-07-08T05:51:33;7.37;;;4.73;;
6356;SDS011;3211;53.452;-2.264;2023-07-08T05:54:15;6.40;;;4.50;;
6356;SDS011;3211;53.452;-2.264;2023-07-08T05:56:57;6.80;;;5.20;;
6356;SDS011;3211;53.452;-2.264;2023-07-08T05:59:40;13.03;;;4.70;;
6356;SDS011;3211;53.452;-2.264;2023-07-08T06:02:23;6.83;;;4.80;;
6356;SDS011;3211;53.452;-2.264;2023-07-08T06:05:06;10.30;;;4.60;;
6356;SDS011;3211;53.452;-2.264;2023-07-08T06:07:48;7.53;;;5.07;;
6356;SDS011;3211;53.452;-2.264;2023-07-08T06:10:30;8.73;;;5.40;;
6356;SDS011;3211;53.452;-2.264;2023-07-08T06:13:12;16.67;;;5.30;;
6356;SDS011;3211;53.452;-2.264;2023-07-08T06:15:55;11.13;;;4.50;;
6356;SDS011;3211;53.452;-2.264;2023-07-08T06:18:37;7.73;;;4.50;;
6356;SDS011;3211;53.452;-2.264;2023-07-08T06:21:19;7.33;;;4.97;;
6356;SDS011;3211;53.452;-2.264;2023-07-08T06:24:01;11.40;;;4.80;;
6356;SDS011;3211;53.452;-2.264;2023-07-08T06:26:44;5.70;;;4.90;;
6356;SDS011;3211;53.452;-2.264;2023-07-08T06:29:25;13.03;;;4.67;;
6356;SDS011;3211;53.452;-2.264;2023-07-08T06:32:09;6.27;;;4.17;;
6356;SDS011;3211;53.452;-2.264;2023-07-08T06:34:51;7.77;;;4.67;;
6356;SDS011;3211;53.452;-2.264;2023-07-08T06:37:33;11.40;;;4.40;;
6356;SDS011;3211;53.452;-2.264;2023-07-08T06:40:15;7.83;;;4.70;;
6356;SDS011;3211;53.452;-2.264;2023-07-08T06:42:59;6.23;;;4.80;;
6356;SDS011;3211;53.452;-2.264;2023-07-08T06:45:41;7.07;;;4.90;;
6356;SDS011;3211;53.452;-2.264;2023-07-08T06:48:26;7.80;;;4.73;;
6356;SDS011;3211;53.452;-2.264;2023-07-08T06:51:07;5.37;;;4.30;;
6356;SDS011;3211;53.452;-2.264;2023-07-08T06:53:49;5.70;;;4.30;;
6356;SDS011;3211;53.452;-2.264;2023-07-08T06:56:31;7.27;;;4.20;;
6356;SDS011;3211;53.452;-2.264;2023-07-08T06:59:13;5.63;;;4.17;;
6356;SDS011;3211;53.452;-2.264;2023-07-08T07:01:55;6.23;;;4.47;;
6356;SDS011;3211;53.452;-2.264;2023-07-08T07:04:38;17.30;;;5.77;;
6356;SDS011;3211;53.452;-2.264;2023-07-08T07:07:20;6.73;;;4.13;;
6356;SDS011;3211;53.452;-2.264;2023-07-08T07:10:02;6.40;;;4.10;;
6356;SDS011;3211;53.452;-2.264;2023-07-08T07:12:45;7.90;;;3.97;;
6356;SDS011;3211;53.452;-2.264;2023-07-08T07:15:27;6.47;;;5.10;;
6356;SDS011;3211;53.452;-2.264;2023-07-08T07:18:10;5.43;;;4.27;;
6356;SDS011;3211;53.452;-2.264;2023-07-08T07:20:54;8.20;;;4.67;;
6356;SDS011;3211;53.452;-2.264;2023-07-08T07:23:36;6.87;;;4.60;;
6356;SDS011;3211;53.452;-2.264;2023-07-08T07:26:18;12.17;;;5.20;;
6356;SDS011;3211;53.452;-2.264;2023-07-08T07:29:00;5.80;;;4.40;;
6356;SDS011;3211;53.452;-2.264;2023-07-08T07:31:42;11.13;;;4.70;;
6356;SDS011;3211;53.452;-2.264;2023-07-08T07:34:24;6.13;;;4.30;;
6356;SDS011;3211;53.452;-2.264;2023-07-08T07:37:07;5.23;;;4.40;;
6356;SDS011;3211;53.452;-2.264;2023-07-08T07:39:52;6.97;;;4.13;;
6356;SDS011;3211;53.452;-2.264;2023-07-08T07:42:34;6.60;;;4.60;;
6356;SDS011;3211;53.452;-2.264;2023-07-08T07:45:20;8.57;;;5.10;;
6356;SDS011;3211;53.452;-2.264;2023-07-08T07:48:03;7.93;;;5.20;;
6356;SDS011;3211;53.452;-2.264;2023-07-08T07:50:45;6.27;;;4.70;;
6356;SDS011;3211;53.452;-2.264;2023-07-08T07:53:29;8.93;;;4.40;;
6356;SDS011;3211;53.452;-2.264;2023-07-08T07:56:11;7.70;;;5.10;;
6356;SDS011;3211;53.452;-2.264;2023-07-08T07:58:53;7.63;;;4.57;;
6356;SDS011;3211;53.452;-2.264;2023-07-08T08:01:35;5.80;;;4.33;;
6356;SDS011;3211;53.452;-2.264;2023-07-08T08:04:17;6.80;;;4.50;;
6356;SDS011;3211;53.452;-2.264;2023-07-08T08:06:58;7.33;;;4.70;;
6356;SDS011;3211;53.452;-2.264;2023-07-08T08:09:42;5.60;;;4.50;;
6356;SDS011;3211;53.452;-2.264;2023-07-08T08:12:24;6.73;;;5.07;;
6356;SDS011;3211;53.452;-2.264;2023-07-08T08:15:06;6.37;;;4.70;;
6356;SDS011;3211;53.452;-2.264;2023-07-08T08:17:49;6.03;;;4.90;;
6356;SDS011;3211;53.452;-2.264;2023-07-08T08:20:32;7.90;;;4.83;;
6356;SDS011;3211;53.452;-2.264;2023-07-08T08:23:14;5.27;;;4.10;;
6356;SDS011;3211;53.452;-2.264;2023-07-08T08:25:57;7.80;;;4.73;;
6356;SDS011;3211;53.452;-2.264;2023-07-08T08:28:39;5.00;;;4.40;;
6356;SDS011;3211;53.452;-2.264;2023-07-08T08:31:22;5.53;;;4.73;;
6356;SDS011;3211;53.452;-2.264;2023-07-08T08:34:04;7.23;;;4.60;;
6356;SDS011;3211;53.452;-2.264;2023-07-08T08:36:46;5.40;;;4.30;;
6356;SDS011;3211;53.452;-2.264;2023-07-08T08:39:27;11.07;;;4.70;;
6356;SDS011;3211;53.452;-2.264;2023-07-08T08:42:13;7.70;;;4.00;;
6356;SDS011;3211;53.452;-2.264;2023-07-08T08:45:07;14.80;;;5.50;;
6356;SDS011;3211;53.452;-2.264;2023-07-08T08:47:54;7.03;;;4.77;;
6356;SDS011;3211;53.452;-2.264;2023-07-08T08:50:41;9.17;;;5.33;;
6356;SDS011;3211;53.452;-2.264;2023-07-08T08:53:28;5.70;;;4.33;;
6356;SDS011;3211;53.452;-2.264;2023-07-08T08:56:12;5.93;;;4.90;;
6356;SDS011;3211;53.452;-2.264;2023-07-08T08:59:02;6.70;;;4.43;;
6356;SDS011;3211;53.452;-2.264;2023-07-08T09:02:08;6.13;;;4.30;;
6356;SDS011;3211;53.452;-2.264;2023-07-08T09:05:07;9.93;;;4.70;;
6356;SDS011;3211;53.452;-2.264;2023-07-08T09:07:57;4.33;;;3.93;;
6356;SDS011;3211;53.452;-2.264;2023-07-08T09:10:44;7.87;;;4.00;;
6356;SDS011;3211;53.452;-2.264;2023-07-08T09:13:31;7.10;;;4.67;;
6356;SDS011;3211;53.452;-2.264;2023-07-08T09:16:18;7.70;;;4.70;;
6356;SDS011;3211;53.452;-2.264;2023-07-08T09:19:11;7.40;;;4.10;;
6356;SDS011;3211;53.452;-2.264;2023-07-08T09:21:57;12.00;;;4.50;;
6356;SDS011;3211;53.452;-2.264;2023-07-08T09:24:45;6.00;;;4.00;;
6356;SDS011;3211;53.452;-2.264;2023-07-08T09:27:30;7.37;;;4.33;;
6356;SDS011;3211;53.452;-2.264;2023-07-08T09:30:13;5.53;;;3.70;;
6356;SDS011;3211;53.452;-2.264;2023-07-08T09:32:57;4.80;;;3.97;;
6356;SDS011;3211;53.452;-2.264;2023-07-08T09:35:44;6.47;;;4.67;;
6356;SDS011;3211;53.452;-2.264;2023-07-08T09:38:28;5.10;;;3.93;;
6356;SDS011;3211;53.452;-2.264;2023-07-08T09:41:09;8.63;;;4.17;;
6356;SDS011;3211;53.452;-2.264;2023-07-08T09:43:53;5.33;;;3.80;;
6356;SDS011;3211;53.452;-2.264;2023-07-08T09:46:45;8.07;;;4.53;;
6356;SDS011;3211;53.452;-2.264;2023-07-08T09:49:29;4.27;;;3.63;;
6356;SDS011;3211;53.452;-2.264;2023-07-08T09:52:13;5.10;;;3.93;;
6356;SDS011;3211;53.452;-2.264;2023-07-08T09:54:55;5.17;;;4.00;;
6356;SDS011;3211;53.452;-2.264;2023-07-08T09:57:37;4.93;;;3.87;;
6356;SDS011;3211;53.452;-2.264;2023-07-08T10:00:26;4.80;;;3.60;;
6356;SDS011;3211;53.452;-2.264;2023-07-08T10:03:15;4.87;;;3.57;;
6356;SDS011;3211;53.452;-2.264;2023-07-08T10:06:05;7.10;;;3.47;;
6356;SDS011;3211;53.452;-2.264;2023-07-08T10:08:55;4.53;;;3.47;;
6356;SDS011;3211;53.452;-2.264;2023-07-08T10:11:42;4.40;;;2.83;;
6356;SDS011;3211;53.452;-2.264;2023-07-08T10:14:27;4.30;;;3.10;;
6356;SDS011;3211;53.452;-2.264;2023-07-08T10:17:16;4.30;;;3.10;;
6356;SDS011;3211;53.452;-2.264;2023-07-08T10:20:00;3.70;;;3.03;;
6356;SDS011;3211;53.452;-2.264;2023-07-08T10:22:45;3.30;;;2.90;;
6356;SDS011;3211;53.452;-2.264;2023-07-08T10:25:35;3.73;;;3.37;;
6356;SDS011;3211;53.452;-2.264;2023-07-08T10:28:28;7.50;;;2.90;;
6356;SDS011;3211;53.452;-2.264;2023-07-08T10:31:19;9.23;;;3.77;;
6356;SDS011;3211;53.452;-2.264;2023-07-08T10:34:15;4.60;;;3.00;;
6356;SDS011;3211;53.452;-2.264;2023-07-08T10:37:22;5.33;;;2.60;;
6356;SDS011;3211;53.452;-2.264;2023-07-08T10:40:17;5.07;;;3.00;;
6356;SDS011;3211;53.452;-2.264;2023-07-08T10:43:12;4.90;;;3.00;;
6356;SDS011;3211;53.452;-2.264;2023-07-08T10:46:05;4.67;;;2.70;;
6356;SDS011;3211;53.452;-2.264;2023-07-08T10:49:02;3.77;;;2.77;;
6356;SDS011;3211;53.452;-2.264;2023-07-08T10:51:54;3.87;;;2.93;;
6356;SDS011;3211;53.452;-2.264;2023-07-08T10:54:52;6.13;;;2.80;;
6356;SDS011;3211;53.452;-2.264;2023-07-08T10:57:59;3.17;;;2.63;;
6356;SDS011;3211;53.452;-2.264;2023-07-08T11:00:56;4.30;;;2.80;;
6356;SDS011;3211;53.452;-2.264;2023-07-08T11:07:00;3.47;;;2.70;;
6356;SDS011;3211;53.452;-2.264;2023-07-08T11:09:52;5.17;;;3.30;;
6356;SDS011;3211;53.452;-2.264;2023-07-08T11:12:38;4.50;;;3.03;;
6356;SDS011;3211;53.452;-2.264;2023-07-08T11:15:28;3.10;;;2.60;;
6356;SDS011;3211;53.452;-2.264;2023-07-08T11:18:16;4.03;;;2.60;;
6356;SDS011;3211;53.452;-2.264;2023-07-08T11:21:04;6.13;;;3.50;;
6356;SDS011;3211;53.452;-2.264;2023-07-08T11:23:52;4.67;;;2.70;;
6356;SDS011;3211;53.452;-2.264;2023-07-08T11:26:41;4.27;;;3.30;;
6356;SDS011;3211;53.452;-2.264;2023-07-08T11:29:30;6.43;;;3.53;;
6356;SDS011;3211;53.452;-2.264;2023-07-08T11:32:21;4.77;;;3.20;;
6356;SDS011;3211;53.452;-2.264;2023-07-08T11:35:07;4.50;;;3.13;;
6356;SDS011;3211;53.452;-2.264;2023-07-08T11:38:00;5.63;;;3.50;;
6356;SDS011;3211;53.452;-2.264;2023-07-08T11:40:50;4.10;;;2.93;;
6356;SDS011;3211;53.452;-2.264;2023-07-08T11:43:36;4.87;;;3.33;;
6356;SDS011;3211;53.452;-2.264;2023-07-08T11:46:24;5.80;;;3.40;;
6356;SDS011;3211;53.452;-2.264;2023-07-08T11:49:13;5.17;;;3.50;;
6356;SDS011;3211;53.452;-2.264;2023-07-08T11:51:55;4.70;;;3.50;;
6356;SDS011;3211;53.452;-2.264;2023-07-08T11:54:39;5.93;;;3.20;;
6356;SDS011;3211;53.452;-2.264;2023-07-08T11:57:28;10.77;;;3.90;;
6356;SDS011;3211;53.452;-2.264;2023-07-08T12:00:24;8.43;;;2.90;;
6356;SDS011;3211;53.452;-2.264;2023-07-08T12:03:18;5.57;;;2.80;;
6356;SDS011;3211;53.452;-2.264;2023-07-08T12:06:03;5.57;;;3.70;;
6356;SDS011;3211;53.452;-2.264;2023-07-08T12:09:35;4.93;;;3.27;;
6356;SDS011;3211;53.452;-2.264;2023-07-08T12:12:21;5.23;;;3.00;;
6356;SDS011;3211;53.452;-2.264;2023-07-08T12:15:09;7.63;;;4.43;;
6356;SDS011;3211;53.452;-2.264;2023-07-08T12:17:55;6.23;;;4.00;;
6356;SDS011;3211;53.452;-2.264;2023-07-08T12:20:39;6.80;;;3.90;;
6356;SDS011;3211;53.452;-2.264;2023-07-08T12:23:24;4.00;;;3.43;;
6356;SDS011;3211;53.452;-2.264;2023-07-08T12:26:07;6.10;;;3.47;;
6356;SDS011;3211;53.452;-2.264;2023-07-08T12:28:49;11.17;;;4.40;;
6356;SDS011;3211;53.452;-2.264;2023-07-08T12:31:31;4.53;;;3.43;;
6356;SDS011;3211;53.452;-2.264;2023-07-08T12:34:14;7.17;;;3.70;;
6356;SDS011;3211;53.452;-2.264;2023-07-08T12:36:56;3.97;;;3.50;;
6356;SDS011;3211;53.452;-2.264;2023-07-08T12:39:40;5.00;;;3.60;;
6356;SDS011;3211;53.452;-2.264;2023-07-08T12:42:22;5.50;;;4.00;;
6356;SDS011;3211;53.452;-2.264;2023-07-08T12:45:07;4.90;;;3.50;;
6356;SDS011;3211;53.452;-2.264;2023-07-08T12:47:55;4.57;;;3.07;;
6356;SDS011;3211;53.452;-2.264;2023-07-08T12:50:37;5.30;;;3.97;;
6356;SDS011;3211;53.452;-2.264;2023-07-08T12:53:19;6.93;;;3.50;;
6356;SDS011;3211;53.452;-2.264;2023-07-08T12:56:02;6.07;;;3.97;;
6356;SDS011;3211;53.452;-2.264;2023-07-08T12:58:45;3.97;;;3.50;;
6356;SDS011;3211;53.452;-2.264;2023-07-08T13:01:31;5.07;;;3.80;;
6356;SDS011;3211;53.452;-2.264;2023-07-08T13:04:15;5.53;;;3.50;;
6356;SDS011;3211;53.452;-2.264;2023-07-08T13:06:58;6.60;;;4.07;;
6356;SDS011;3211;53.452;-2.264;2023-07-08T13:09:43;6.70;;;3.60;;
6356;SDS011;3211;53.452;-2.264;2023-07-08T13:12:30;5.03;;;3.50;;
6356;SDS011;3211;53.452;-2.264;2023-07-08T13:15:17;5.23;;;3.40;;
6356;SDS011;3211;53.452;-2.264;2023-07-08T13:18:02;4.93;;;3.23;;
6356;SDS011;3211;53.452;-2.264;2023-07-08T13:20:45;6.53;;;3.80;;
6356;SDS011;3211;53.452;-2.264;2023-07-08T13:23:30;5.70;;;3.20;;
6356;SDS011;3211;53.452;-2.264;2023-07-08T13:26:12;7.47;;;3.57;;
6356;SDS011;3211;53.452;-2.264;2023-07-08T13:29:01;5.90;;;3.50;;
6356;SDS011;3211;53.452;-2.264;2023-07-08T13:31:47;5.03;;;3.60;;
6356;SDS011;3211;53.452;-2.264;2023-07-08T13:34:29;6.30;;;3.80;;
6356;SDS011;3211;53.452;-2.264;2023-07-08T13:37:13;4.87;;;3.40;;
6356;SDS011;3211;53.452;-2.264;2023-07-08T13:39:55;11.53;;;7.23;;
6356;SDS011;3211;53.452;-2.264;2023-07-08T13:42:37;10.93;;;6.90;;
6356;SDS011;3211;53.452;-2.264;2023-07-08T13:45:22;5.47;;;3.63;;
6356;SDS011;3211;53.452;-2.264;2023-07-08T13:48:13;9.07;;;4.00;;
6356;SDS011;3211;53.452;-2.264;2023-07-08T13:51:01;7.63;;;4.20;;
6356;SDS011;3211;53.452;-2.264;2023-07-08T13:53:45;8.30;;;3.37;;
6356;SDS011;3211;53.452;-2.264;2023-07-08T13:56:29;6.23;;;3.33;;
6356;SDS011;3211;53.452;-2.264;2023-07-08T13:59:15;5.40;;;3.70;;
6356;SDS011;3211;53.452;-2.264;2023-07-08T14:02:01;5.57;;;3.23;;
6356;SDS011;3211;53.452;-2.264;2023-07-08T14:04:54;5.77;;;3.93;;
6356;SDS011;3211;53.452;-2.264;2023-07-08T14:07:38;5.33;;;3.60;;
6356;SDS011;3211;53.452;-2.264;2023-07-08T14:10:21;6.30;;;5.63;;
6356;SDS011;3211;53.452;-2.264;2023-07-08T14:13:03;8.17;;;4.17;;
6356;SDS011;3211;53.452;-2.264;2023-07-08T14:15:46;8.20;;;3.93;;
6356;SDS011;3211;53.452;-2.264;2023-07-08T14:18:29;7.07;;;3.93;;
6356;SDS011;3211;53.452;-2.264;2023-07-08T14:21:11;5.57;;;3.77;;
6356;SDS011;3211;53.452;-2.264;2023-07-08T14:23:53;5.60;;;3.97;;
6356;SDS011;3211;53.452;-2.264;2023-07-08T14:26:35;5.90;;;3.70;;
6356;SDS011;3211;53.452;-2.264;2023-07-08T14:29:17;5.10;;;3.87;;
6356;SDS011;3211;53.452;-2.264;2023-07-08T14:32:00;5.07;;;3.37;;
6356;SDS011;3211;53.452;-2.264;2023-07-08T14:34:43;6.83;;;3.70;;
6356;SDS011;3211;53.452;-2.264;2023-07-08T14:37:31;6.97;;;3.50;;
6356;SDS011;3211;53.452;-2.264;2023-07-08T14:40:23;5.63;;;3.97;;
6356;SDS011;3211;53.452;-2.264;2023-07-08T14:43:10;6.83;;;3.73;;
6356;SDS011;3211;53.452;-2.264;2023-07-08T14:46:01;6.37;;;3.80;;
6356;SDS011;3211;53.452;-2.264;2023-07-08T14:48:44;7.13;;;3.67;;
6356;SDS011;3211;53.452;-2.264;2023-07-08T14:51:27;5.83;;;3.53;;
6356;SDS011;3211;53.452;-2.264;2023-07-08T14:54:09;5.53;;;3.43;;
6356;SDS011;3211;53.452;-2.264;2023-07-08T14:56:52;6.00;;;3.43;;
6356;SDS011;3211;53.452;-2.264;2023-07-08T14:59:37;4.73;;;3.17;;
6356;SDS011;3211;53.452;-2.264;2023-07-08T15:02:20;7.30;;;3.17;;
6356;SDS011;3211;53.452;-2.264;2023-07-08T15:05:04;6.30;;;4.03;;
6356;SDS011;3211;53.452;-2.264;2023-07-08T15:07:52;3.90;;;3.27;;
6356;SDS011;3211;53.452;-2.264;2023-07-08T15:10:35;3.73;;;2.97;;
6356;SDS011;3211;53.452;-2.264;2023-07-08T15:13:20;4.57;;;3.10;;
6356;SDS011;3211;53.452;-2.264;2023-07-08T15:16:08;4.47;;;3.00;;
6356;SDS011;3211;53.452;-2.264;2023-07-08T15:18:53;6.27;;;3.10;;
6356;SDS011;3211;53.452;-2.264;2023-07-08T15:21:35;6.83;;;3.63;;
6356;SDS011;3211;53.452;-2.264;2023-07-08T15:24:19;6.60;;;3.50;;
6356;SDS011;3211;53.452;-2.264;2023-07-08T15:27:02;4.67;;;3.37;;
6356;SDS011;3211;53.452;-2.264;2023-07-08T15:29:45;7.33;;;3.83;;
6356;SDS011;3211;53.452;-2.264;2023-07-08T15:32:27;5.47;;;3.50;;
6356;SDS011;3211;53.452;-2.264;2023-07-08T15:35:11;5.60;;;3.17;;
6356;SDS011;3211;53.452;-2.264;2023-07-08T15:37:54;5.97;;;3.90;;
6356;SDS011;3211;53.452;-2.264;2023-07-08T15:40:38;4.30;;;3.30;;
6356;SDS011;3211;53.452;-2.264;2023-07-08T15:43:21;6.00;;;3.87;;
6356;SDS011;3211;53.452;-2.264;2023-07-08T15:46:03;3.97;;;2.47;;
6356;SDS011;3211;53.452;-2.264;2023-07-08T15:48:45;5.03;;;2.50;;
6356;SDS011;3211;53.452;-2.264;2023-07-08T15:51:27;3.53;;;1.93;;
6356;SDS011;3211;53.452;-2.264;2023-07-08T15:54:10;2.50;;;1.97;;
6356;SDS011;3211;53.452;-2.264;2023-07-08T15:56:53;2.20;;;1.70;;
6356;SDS011;3211;53.452;-2.264;2023-07-08T15:59:36;3.40;;;2.07;;
6356;SDS011;3211;53.452;-2.264;2023-07-08T16:02:24;4.10;;;2.00;;
6356;SDS011;3211;53.452;-2.264;2023-07-08T16:05:08;3.73;;;2.00;;
6356;SDS011;3211;53.452;-2.264;2023-07-08T16:07:52;6.30;;;2.60;;
6356;SDS011;3211;53.452;-2.264;2023-07-08T16:10:35;4.67;;;2.30;;
6356;SDS011;3211;53.452;-2.264;2023-07-08T16:13:22;2.10;;;1.80;;
6356;SDS011;3211;53.452;-2.264;2023-07-08T16:16:06;5.67;;;2.80;;
6356;SDS011;3211;53.452;-2.264;2023-07-08T16:18:50;3.73;;;1.80;;
6356;SDS011;3211;53.452;-2.264;2023-07-08T16:21:32;2.90;;;2.30;;
6356;SDS011;3211;53.452;-2.264;2023-07-08T16:24:14;6.27;;;2.17;;
6356;SDS011;3211;53.452;-2.264;2023-07-08T16:26:56;3.67;;;2.10;;
6356;SDS011;3211;53.452;-2.264;2023-07-08T16:29:40;4.30;;;2.10;;
6356;SDS011;3211;53.452;-2.264;2023-07-08T16:32:22;3.13;;;1.77;;
6356;SDS011;3211;53.452;-2.264;2023-07-08T16:35:04;4.97;;;2.23;;
6356;SDS011;3211;53.452;-2.264;2023-07-08T16:37:47;3.67;;;1.73;;
6356;SDS011;3211;53.452;-2.264;2023-07-08T16:40:30;4.23;;;2.17;;
6356;SDS011;3211;53.452;-2.264;2023-07-08T16:43:17;3.67;;;2.20;;
6356;SDS011;3211;53.452;-2.264;2023-07-08T16:46:06;2.10;;;1.60;;
6356;SDS011;3211;53.452;-2.264;2023-07-08T16:48:50;3.57;;;1.90;;